Time;durP1;ratioP1;P1;durP2;ratioP2;P2;SDS_P1;SDS_P2;PMS_P1;PMS_P2;Temp;Humidity;BMP_temperature;BMP_pressure;BME280_temperature;BME280_humidity;BME280_pressure;Samples;Min_cycle;Max_cycle;Signal;HPM_P1;HPM_P2
2021/09/11 00:00:28;;;;;;;23.42;14.93;;;;;;;12.76;71.17;100440.64;1716499;81;26466;-65
2021/09/11 00:02:56;;;;;;;23.55;14.80;;;;;;;12.74;71.00;100441.53;1730812;80;25807;-65
2021/09/11 00:05:23;;;;;;;20.50;15.53;;;;;;;12.72;71.11;100435.62;1727082;81;25673;-65
2021/09/11 00:07:51;;;;;;;24.45;14.87;;;;;;;12.69;70.94;100442.48;1702351;81;27338;-65
2021/09/11 00:10:18;;;;;;;28.05;16.62;;;;;;;12.66;70.89;100435.54;1734484;81;25564;-65
2021/09/11 00:12:46;;;;;;;23.12;15.70;;;;;;;12.63;71.18;100434.28;1723152;81;25800;-65
2021/09/11 00:15:16;;;;;;;21.17;15.05;;;;;;;12.61;71.22;100435.12;1712078;82;25842;-65
2021/09/11 00:17:43;;;;;;;23.10;15.78;;;;;;;12.60;71.36;100432.20;1733260;81;25561;-65
2021/09/11 00:20:12;;;;;;;21.00;14.70;;;;;;;12.57;71.37;100430.11;1725134;81;27399;-65
2021/09/11 00:22:39;;;;;;;24.67;15.17;;;;;;;12.55;71.25;100429.64;1729361;81;26605;-66
2021/09/11 00:25:08;;;;;;;22.15;15.58;;;;;;;12.53;71.19;100431.85;1730879;81;25786;-66
2021/09/11 00:27:34;;;;;;;24.00;14.67;;;;;;;12.45;71.42;100430.74;1727589;81;25623;-66
2021/09/11 00:30:01;;;;;;;20.10;15.05;;;;;;;12.45;71.42;100430.74;1662017;83;25581;-65
2021/09/11 00:32:27;;;;;;;25.12;16.50;;;;;;;12.41;71.50;100427.08;1687762;83;27341;-65
2021/09/11 00:34:55;;;;;;;22.02;15.70;;;;;;;12.39;71.53;100425.78;1716077;82;25874;-65
2021/09/11 00:37:23;;;;;;;26.60;16.40;;;;;;;12.37;71.64;100426.10;1733459;82;25400;-65
2021/09/11 00:39:49;;;;;;;24.95;16.02;;;;;;;12.32;71.75;100421.62;1710945;82;26205;-65
2021/09/11 00:42:15;;;;;;;24.87;16.82;;;;;;;12.31;71.74;100421.97;1713299;82;25494;-65
2021/09/11 00:44:42;;;;;;;21.73;16.15;;;;;;;12.27;71.63;100423.70;1712831;82;27501;-65
2021/09/11 00:47:08;;;;;;;25.68;15.85;;;;;;;12.23;71.87;100421.39;1713846;82;25818;-65
2021/09/11 00:49:35;;;;;;;25.10;16.17;;;;;;;12.21;72.08;100420.88;1714691;82;26168;-65
2021/09/11 00:52:02;;;;;;;26.73;16.42;;;;;;;12.17;72.15;100423.44;1714133;82;25688;-65
2021/09/11 00:54:29;;;;;;;22.62;16.25;;;;;;;12.15;72.30;100422.95;1712135;82;25772;-65
2021/09/11 00:56:56;;;;;;;25.27;16.77;;;;;;;12.13;72.21;100419.20;1716872;82;27282;-65
2021/09/11 00:59:22;;;;;;;25.65;16.67;;;;;;;12.11;72.75;100420.08;1724022;81;25706;-65
2021/09/11 01:01:48;;;;;;;26.50;17.00;;;;;;;12.10;72.48;100422.55;1717822;80;25477;-65
2021/09/11 01:04:15;;;;;;;23.67;16.50;;;;;;;12.09;72.49;100414.75;1719229;80;25680;-65
2021/09/11 01:06:41;;;;;;;30.20;18.12;;;;;;;12.06;72.41;100412.66;1726346;81;26534;-65
2021/09/11 01:09:08;;;;;;;24.82;16.12;;;;;;;12.05;72.66;100415.91;1719074;80;27388;-65
2021/09/11 01:11:36;;;;;;;24.45;17.12;;;;;;;12.04;72.75;100417.61;1725441;81;25705;-65
2021/09/11 01:14:03;;;;;;;21.50;16.42;;;;;;;12.00;72.57;100415.27;1696524;81;25821;-65
2021/09/11 01:16:33;;;;;;;21.90;15.43;;;;;;;11.99;72.76;100418.55;1713195;81;25694;-65
2021/09/11 01:18:59;;;;;;;22.37;16.07;;;;;;;11.96;72.38;100413.75;1727745;81;25854;-65
2021/09/11 01:21:26;;;;;;;22.50;15.88;;;;;;;11.93;72.46;100416.52;1739861;81;27374;-65
2021/09/11 01:23:53;;;;;;;24.23;17.37;;;;;;;11.92;72.78;100412.80;1746790;82;25592;-65
2021/09/11 01:26:19;;;;;;;23.67;16.95;;;;;;;11.91;73.33;100415.25;1728773;82;25599;-65
2021/09/11 01:28:46;;;;;;;29.25;18.55;;;;;;;11.90;73.39;100412.26;1723659;81;25843;-65
2021/09/11 01:31:12;;;;;;;25.30;18.57;;;;;;;11.89;73.40;100414.17;1721237;80;25809;-65
2021/09/11 01:33:39;;;;;;;24.82;18.75;;;;;;;11.89;73.94;100416.89;1713245;81;29427;-65
2021/09/11 01:36:06;;;;;;;27.48;18.42;;;;;;;11.88;74.05;100411.21;1712416;80;25912;-65
2021/09/11 01:38:32;;;;;;;28.07;16.93;;;;;;;11.88;73.77;100411.78;1716779;81;25442;-65
2021/09/11 01:40:59;;;;;;;25.80;18.00;;;;;;;11.86;73.45;100415.37;1718795;81;26391;-65
2021/09/11 01:43:38;;;;;;;22.90;16.35;;;;;;;11.84;73.79;100417.03;1727886;81;25868;-65
2021/09/11 01:46:02;;;;;;;22.95;17.32;;;;;;;11.82;73.51;100415.77;1715527;81;27563;-65
2021/09/11 01:48:28;;;;;;;30.52;17.82;;;;;;;11.79;73.72;100409.05;1722081;80;27195;-65
2021/09/11 01:50:55;;;;;;;26.42;17.75;;;;;;;11.78;73.66;100409.61;1719119;81;25865;-65
2021/09/11 01:53:22;;;;;;;27.07;19.42;;;;;;;11.75;73.45;100411.59;1714312;82;25709;-66
2021/09/11 01:55:49;;;;;;;23.70;18.07;;;;;;;11.74;73.85;100405.91;1717341;81;25781;-65
2021/09/11 01:58:16;;;;;;;30.37;17.25;;;;;;;11.72;73.69;100407.36;1732980;81;27331;-65
2021/09/11 02:00:44;;;;;;;31.23;19.98;;;;;;;11.70;73.53;100406.31;1722530;81;25823;-66
2021/09/11 02:03:11;;;;;;;26.68;17.23;;;;;;;11.67;74.09;100406.93;1713565;81;25904;-66
2021/09/11 02:05:37;;;;;;;24.47;17.87;;;;;;;11.65;73.92;100406.45;1718692;81;25530;-65
2021/09/11 02:08:04;;;;;;;22.80;16.55;;;;;;;11.64;73.85;100404.05;1724463;80;25602;-65
2021/09/11 02:10:31;;;;;;;25.43;17.27;;;;;;;11.64;73.85;100408.12;1712968;80;27265;-65
2021/09/11 02:12:59;;;;;;;27.22;16.85;;;;;;;11.61;73.80;100413.59;1718819;81;25811;-65
2021/09/11 02:15:26;;;;;;;27.42;18.05;;;;;;;11.61;73.79;100408.73;1715812;81;25417;-65
2021/09/11 02:17:52;;;;;;;24.98;18.73;;;;;;;11.58;74.15;100410.97;1716173;81;25665;-65
2021/09/11 02:20:18;;;;;;;24.95;17.70;;;;;;;11.58;74.42;100408.82;1722637;81;25675;-65
2021/09/11 02:22:45;;;;;;;31.00;18.32;;;;;;;11.56;73.95;100407.77;1728891;81;27322;-65
2021/09/11 02:25:11;;;;;;;27.90;17.95;;;;;;;11.54;74.14;100408.65;1724041;81;25863;-65
2021/09/11 02:27:40;;;;;;;25.88;18.12;;;;;;;11.53;74.27;100411.67;1730837;81;25768;-65
2021/09/11 02:30:08;;;;;;;29.57;19.15;;;;;;;11.50;74.24;100414.43;1724295;82;25838;-65
2021/09/11 02:32:35;;;;;;;27.30;17.92;;;;;;;11.48;73.96;100412.59;1722991;82;25539;-65
2021/09/11 02:35:01;;;;;;;30.23;19.30;;;;;;;11.45;74.06;100410.50;1714366;82;27276;-65
2021/09/11 02:37:28;;;;;;;29.65;19.17;;;;;;;11.44;74.28;100413.52;1717596;82;25667;-65
2021/09/11 02:39:54;;;;;;;27.60;18.77;;;;;;;11.42;74.13;100407.06;1712005;82;25450;-65
2021/09/11 02:42:21;;;;;;;26.05;18.37;;;;;;;11.40;74.23;100409.28;1675872;83;25793;-65
2021/09/11 02:44:47;;;;;;;28.20;18.25;;;;;;;;;;1715392;80;25503;-65
2021/09/11 02:47:14;;;;;;;26.70;19.15;;;;;;;11.38;74.41;100412.30;1714996;81;27262;-65
2021/09/11 02:49:40;;;;;;;30.08;19.50;;;;;;;11.36;74.27;100409.67;1726017;81;26007;-65
2021/09/11 02:52:07;;;;;;;25.43;18.27;;;;;;;11.34;74.60;100407.28;1720943;80;25736;-65
2021/09/11 02:54:33;;;;;;;32.50;20.30;;;;;;;11.33;74.61;100411.08;1719484;81;25639;-65
2021/09/11 02:57:00;;;;;;;25.27;18.52;;;;;;;11.33;75.18;100413.79;1713140;81;26037;-65
2021/09/11 02:59:26;;;;;;;26.15;18.67;;;;;;;11.31;75.31;100407.10;1712958;81;29514;-65
2021/09/11 03:01:53;;;;;;;30.00;19.17;;;;;;;11.33;75.30;100413.79;1724284;81;25635;-65
2021/09/11 03:04:20;;;;;;;29.35;19.32;;;;;;;11.32;75.24;100410.86;1722187;81;25638;-65
2021/09/11 03:06:48;;;;;;;31.05;18.75;;;;;;;11.31;75.62;100407.89;1726150;81;25652;-65
2021/09/11 03:09:15;;;;;;;27.58;18.55;;;;;;;11.32;75.65;100411.39;1742824;81;25866;-65
2021/09/11 03:11:41;;;;;;;27.62;18.73;;;;;;;11.32;75.69;100404.62;1715486;81;27318;-65
2021/09/11 03:14:09;;;;;;;26.37;18.95;;;;;;;11.32;75.64;100409.50;1721470;81;25704;-65
2021/09/11 03:16:35;;;;;;;28.62;19.15;;;;;;;11.32;76.02;100411.39;1718176;80;25581;-65
2021/09/11 03:19:01;;;;;;;28.73;18.02;;;;;;;11.34;75.88;100411.88;1722222;80;25636;-65
2021/09/11 03:21:28;;;;;;;28.50;19.45;;;;;;;11.33;76.14;100402.17;1742608;82;25880;-65
2021/09/11 03:23:54;;;;;;;33.10;19.27;;;;;;;11.33;76.00;100400.81;1747390;81;26624;-65
2021/09/11 03:26:20;;;;;;;31.80;18.70;;;;;;;11.33;75.95;100406.23;1714424;81;25623;-65
2021/09/11 03:28:47;;;;;;;30.32;20.57;;;;;;;11.32;76.10;100401.38;1719812;81;25620;-65
2021/09/11 03:31:13;;;;;;;27.93;18.82;;;;;;;11.32;76.15;100409.50;1719015;80;25619;-65
2021/09/11 03:33:40;;;;;;;26.75;18.67;;;;;;;11.31;76.13;100403.04;1718520;81;25946;-65
2021/09/11 03:36:06;;;;;;;30.35;19.62;;;;;;;11.31;76.26;100401.69;1729396;82;27396;-65
2021/09/11 03:38:33;;;;;;;37.45;19.52;;;;;;;11.30;76.39;100398.72;1720311;80;26287;-65
2021/09/11 03:40:59;;;;;;;29.10;18.92;;;;;;;11.32;76.58;100400.56;1723040;81;25384;-65
2021/09/11 03:43:26;;;;;;;28.40;18.27;;;;;;;11.32;76.43;100396.50;1712234;82;26038;-65
2021/09/11 03:45:52;;;;;;;28.85;18.90;;;;;;;11.31;76.40;100395.70;1720279;81;25819;-65
2021/09/11 03:48:20;;;;;;;27.07;18.80;;;;;;;11.31;76.36;100393.56;1720026;81;27349;-65
2021/09/11 03:50:47;;;;;;;28.00;18.48;;;;;;;11.30;76.30;100392.75;1719893;81;25509;-65
2021/09/11 03:53:13;;;;;;;26.05;18.20;;;;;;;11.29;76.37;100396.58;1734792;81;25423;-65
2021/09/11 03:55:40;;;;;;;27.95;19.57;;;;;;;11.29;76.30;100391.70;1718883;81;26035;-65
2021/09/11 03:58:08;;;;;;;30.68;19.92;;;;;;;11.28;76.30;100392.83;1731180;82;25809;-65
2021/09/11 04:00:36;;;;;;;29.30;18.92;;;;;;;11.26;76.60;100388.28;1734450;81;27320;-65
2021/09/11 04:03:03;;;;;;;31.40;20.02;;;;;;;11.25;76.54;100383.97;1663157;84;25625;-65
2021/09/11 04:05:30;;;;;;;27.10;17.57;;;;;;;11.24;76.64;100379.64;1714707;82;25666;-65
2021/09/11 04:07:58;;;;;;;31.25;20.00;;;;;;;11.23;76.56;100383.48;1712798;82;25732;-65
2021/09/11 04:10:24;;;;;;;28.15;19.25;;;;;;;11.24;76.61;100389.13;1726473;82;25731;-65
2021/09/11 04:12:51;;;;;;;24.98;18.85;;;;;;;11.23;76.78;100386.19;1718082;82;27275;-66
2021/09/11 04:15:18;;;;;;;36.33;19.70;;;;;;;11.21;76.78;100390.00;1717264;82;27133;-65
2021/09/11 04:17:44;;;;;;;27.60;18.40;;;;;;;11.23;76.98;100391.60;1715023;82;25832;-65
2021/09/11 04:20:13;;;;;;;27.15;18.90;;;;;;;11.23;77.00;100389.69;1716806;82;26381;-65
2021/09/11 04:22:40;;;;;;;30.72;19.10;;;;;;;11.24;76.92;100389.94;1714759;82;25395;-65
2021/09/11 04:25:08;;;;;;;31.20;19.65;;;;;;;11.25;77.04;100393.44;1716861;82;27523;-65
2021/09/11 04:27:35;;;;;;;29.98;19.55;;;;;;;11.25;76.86;100388.03;1724748;82;25542;-65
2021/09/11 04:30:02;;;;;;;26.52;18.07;;;;;;;11.26;76.92;100393.13;1666122;83;26279;-65
2021/09/11 04:32:28;;;;;;;27.45;19.00;;;;;;;11.26;76.98;100392.34;1680133;84;25765;-65
2021/09/11 04:34:55;;;;;;;36.95;19.77;;;;;;;11.27;77.01;100385.80;1677937;84;25407;-65
2021/09/11 04:37:23;;;;;;;27.75;18.27;;;;;;;11.28;77.04;100388.77;1678005;83;27330;-65
2021/09/11 04:39:50;;;;;;;29.05;19.37;;;;;;;11.31;77.06;100396.27;1678157;84;25670;-65
2021/09/11 04:42:16;;;;;;;27.82;18.35;;;;;;;11.33;77.04;100396.19;1642366;84;25861;-65
2021/09/11 04:44:42;;;;;;;27.48;18.77;;;;;;;11.32;77.09;100394.61;1675266;84;25710;-65
2021/09/11 04:47:08;;;;;;;30.25;18.37;;;;;;;11.34;77.16;100391.56;1670350;84;25716;-65
2021/09/11 04:49:35;;;;;;;26.62;18.98;;;;;;;11.36;77.08;100394.78;1668797;83;27463;-65
2021/09/11 04:52:01;;;;;;;26.77;18.25;;;;;;;11.36;76.98;100397.48;1675268;83;25632;-66
2021/09/11 04:54:28;;;;;;;26.95;18.82;;;;;;;11.38;77.01;100400.68;1663928;83;25824;-66
2021/09/11 04:56:54;;;;;;;26.97;18.65;;;;;;;11.40;77.13;100401.95;1669102;84;25689;-65
2021/09/11 04:59:21;;;;;;;26.40;17.37;;;;;;;11.43;77.22;100399.75;1682300;83;25501;-66
2021/09/11 05:01:47;;;;;;;24.45;17.73;;;;;;;11.45;77.18;100406.44;1665336;84;27293;-65
2021/09/11 05:04:14;;;;;;;26.95;18.42;;;;;;;11.46;77.24;100405.34;1676807;82;25469;-66
2021/09/11 05:06:40;;;;;;;24.77;17.35;;;;;;;11.50;77.39;100409.02;1672926;84;25879;-66
2021/09/11 05:09:07;;;;;;;30.72;18.37;;;;;;;11.54;77.51;100411.36;1676553;83;26497;-66
2021/09/11 05:11:33;;;;;;;30.92;19.73;;;;;;;11.59;77.51;100418.53;1721435;81;25714;-66
2021/09/11 05:14:00;;;;;;;28.05;17.52;;;;;;;11.65;77.64;100409.73;1717493;81;27317;-66
2021/09/11 05:16:27;;;;;;;27.77;18.00;;;;;;;11.71;77.63;100411.98;1714755;81;25801;-66
2021/09/11 05:18:54;;;;;;;23.65;17.15;;;;;;;11.77;77.66;100413.42;1712341;82;25867;-65
2021/09/11 05:21:21;;;;;;;25.70;17.37;;;;;;;11.84;77.57;100406.76;1713158;81;27808;-65
2021/09/11 05:23:47;;;;;;;26.17;17.82;;;;;;;11.92;77.69;100401.39;1731191;81;25653;-66
2021/09/11 05:26:14;;;;;;;25.08;17.02;;;;;;;12.01;77.77;100410.10;1714352;81;29461;-65
2021/09/11 05:28:42;;;;;;;27.55;17.05;;;;;;;12.10;77.67;100409.55;1723055;81;25775;-66
2021/09/11 05:31:09;;;;;;;26.42;17.10;;;;;;;12.19;77.67;100404.14;1716276;81;25734;-65
2021/09/11 05:33:36;;;;;;;30.80;18.00;;;;;;;12.28;77.72;100403.61;1724827;81;25629;-66
2021/09/11 05:36:03;;;;;;;25.68;17.10;;;;;;;12.40;77.81;100410.55;1722072;81;25668;-65
2021/09/11 05:38:29;;;;;;;24.27;16.32;;;;;;;12.50;77.64;100398.59;1719416;80;27361;-65
2021/09/11 05:40:57;;;;;;;21.37;16.67;;;;;;;12.62;77.53;100406.10;1718929;80;25877;-66
2021/09/11 05:43:24;;;;;;;24.72;16.25;;;;;;;12.74;77.53;100398.11;1722574;81;25680;-66
2021/09/11 05:45:51;;;;;;;23.73;16.02;;;;;;;12.86;77.39;100395.53;1730921;82;25603;-66
2021/09/11 05:48:18;;;;;;;24.02;16.00;;;;;;;13.00;77.30;100396.70;1712774;82;25654;-65
2021/09/11 05:50:45;;;;;;;25.15;15.80;;;;;;;13.15;77.23;100391.32;1724180;81;26487;-65
2021/09/11 05:53:11;;;;;;;23.05;15.50;;;;;;;13.30;76.98;100391.37;1713180;81;25848;-65
2021/09/11 05:55:38;;;;;;;27.05;15.95;;;;;;;13.44;76.67;100390.61;1717821;80;25430;-65
2021/09/11 05:58:04;;;;;;;22.60;15.95;;;;;;;13.60;76.52;100396.86;1713276;80;27810;-65
2021/09/11 06:00:30;;;;;;;22.65;14.53;;;;;;;13.77;76.35;100398.16;1719476;81;25451;-65
2021/09/11 06:02:56;;;;;;;19.80;14.78;;;;;;;13.92;76.24;100401.43;1723427;81;27244;-65
2021/09/11 06:05:23;;;;;;;22.50;14.85;;;;;;;14.09;76.18;100395.88;1718149;80;25820;-65
2021/09/11 06:07:50;;;;;;;23.35;15.78;;;;;;;14.31;76.37;100396.13;1712891;81;25867;-66
2021/09/11 06:10:16;;;;;;;18.92;14.28;;;;;;;14.52;75.75;100401.59;1729734;81;26305;-66
2021/09/11 06:12:43;;;;;;;23.45;14.35;;;;;;;14.71;75.49;100394.33;1734597;82;25644;-66
2021/09/11 06:15:12;;;;;;;22.22;14.63;;;;;;;14.92;75.05;100391.55;1731165;81;27321;-66
2021/09/11 06:17:39;;;;;;;23.60;14.33;;;;;;;15.14;74.72;100399.11;1727010;80;26516;-65
2021/09/11 06:20:09;;;;;;;21.82;14.05;;;;;;;15.35;74.05;100403.12;1726879;81;25718;-65
2021/09/11 06:22:36;;;;;;;;;;;;;;;15.59;74.05;100397.47;1725047;81;26350;-65
2021/09/11 06:25:05;;;;;;;20.95;13.35;;;;;;;15.84;74.00;100404.54;1736225;81;26423;-65
2021/09/11 06:27:31;;;;;;;19.15;13.05;;;;;;;16.05;73.06;100403.03;1717800;81;33281;-66
2021/09/11 06:29:59;;;;;;;21.52;13.38;;;;;;;16.30;72.83;100407.09;1715786;80;25705;-66
2021/09/11 06:32:27;;;;;;;17.70;12.85;;;;;;;16.59;72.28;100406.56;1728879;80;25636;-66
2021/09/11 06:34:54;;;;;;;16.67;12.15;;;;;;;16.85;71.93;100408.08;1715610;81;27759;-66
2021/09/11 06:37:20;;;;;;;20.25;12.47;;;;;;;17.16;71.40;100409.52;1721098;81;25841;-67
2021/09/11 06:39:47;;;;;;;20.05;12.65;;;;;;;17.46;70.39;100404.20;1714202;81;27387;-65
2021/09/11 06:42:15;;;;;;;19.17;12.45;;;;;;;17.71;69.23;100408.92;1716344;81;25607;-65
2021/09/11 06:44:41;;;;;;;19.90;12.73;;;;;;;17.87;68.67;100411.07;1715745;81;25687;-65
2021/09/11 06:47:08;;;;;;;18.60;13.50;;;;;;;18.14;68.29;100411.88;1721084;80;25888;-66
2021/09/11 06:49:35;;;;;;;19.25;12.35;;;;;;;18.38;67.61;100415.72;1716326;81;25915;-65
2021/09/11 06:52:02;;;;;;;17.42;12.55;;;;;;;18.63;66.76;100414.08;1718679;81;27307;-65
2021/09/11 06:54:28;;;;;;;16.00;11.88;;;;;;;18.84;66.68;100421.95;1726869;80;27206;-65
2021/09/11 06:56:54;;;;;;;19.10;12.98;;;;;;;19.13;66.62;100426.61;1715397;81;25624;-66
2021/09/11 06:59:21;;;;;;;19.67;12.63;;;;;;;19.47;66.55;100426.81;1722557;80;25864;-66
2021/09/11 07:01:48;;;;;;;18.60;12.15;;;;;;;19.83;65.59;100422.70;1712827;81;25794;-66
2021/09/11 07:04:14;;;;;;;18.23;11.50;;;;;;;20.14;64.75;100429.04;1712094;81;27290;-66
2021/09/11 07:06:41;;;;;;;15.80;10.95;;;;;;;20.43;64.24;100421.19;1727161;81;27237;-66
2021/09/11 07:09:07;;;;;;;21.90;11.57;;;;;;;20.59;62.83;100420.42;1718432;80;25678;-66
2021/09/11 07:11:34;;;;;;;19.27;11.88;;;;;;;20.88;62.32;100427.66;1717449;80;25779;-66
2021/09/11 07:14:01;;;;;;;16.77;11.03;;;;;;;21.25;62.60;100429.62;1713152;81;25792;-66
2021/09/11 07:16:28;;;;;;;14.58;10.58;;;;;;;21.51;60.62;100430.06;1725402;80;27944;-66
2021/09/11 07:18:55;;;;;;;16.67;10.65;;;;;;;21.69;59.88;100431.61;1729405;81;25605;-66
2021/09/11 07:21:22;;;;;;;15.05;11.10;;;;;;;21.89;59.31;100433.50;1729428;80;25586;-67
2021/09/11 07:23:49;;;;;;;18.02;10.38;;;;;;;22.12;58.13;100429.73;1718053;81;25792;-65
2021/09/11 07:26:24;;;;;;;15.80;10.60;;;;;;;22.37;58.20;100430.69;1734297;81;25449;-65
2021/09/11 07:28:46;;;;;;;15.40;10.28;;;;;;;22.54;56.08;100425.62;1726625;80;27288;-67
2021/09/11 07:31:13;;;;;;;16.62;9.85;;;;;;;22.63;56.36;100419.17;1718880;81;25628;-64
2021/09/11 07:33:40;;;;;;;16.05;9.63;;;;;;;22.96;56.34;100422.81;1687735;82;25872;-64
2021/09/11 07:36:08;;;;;;;16.17;10.05;;;;;;;23.31;55.79;100420.73;1686480;82;25696;-65
2021/09/11 07:38:36;;;;;;;14.33;9.60;;;;;;;23.55;55.04;100421.72;1676420;83;25571;-65
2021/09/11 07:41:05;;;;;;;12.73;9.80;;;;;;;23.80;54.52;100423.09;1683952;83;28009;-65
2021/09/11 07:43:32;;;;;;;15.55;9.68;;;;;;;24.05;54.35;100418.34;1687951;83;25823;-65
2021/09/11 07:45:58;;;;;;;12.65;8.80;;;;;;;24.50;54.26;100419.78;1693976;83;25870;-65
2021/09/11 07:48:26;;;;;;;13.50;9.03;;;;;;;24.82;52.05;100416.89;1703475;80;25774;-66
2021/09/11 07:50:54;;;;;;;15.63;9.25;;;;;;;24.86;50.80;100416.86;1700311;83;25531;-65
2021/09/11 07:53:20;;;;;;;14.43;9.13;;;;;;;25.07;50.55;100415.36;1702506;83;27323;-65
2021/09/11 07:55:48;;;;;;;13.98;9.33;;;;;;;25.40;50.17;100412.39;1747263;80;25693;-63
2021/09/11 07:58:14;;;;;;;14.10;8.68;;;;;;;25.62;48.67;100411.61;1752332;80;25691;-64
2021/09/11 08:00:41;;;;;;;12.35;8.73;;;;;;;25.87;48.88;100414.93;1765961;80;25902;-64
2021/09/11 08:03:07;;;;;;;11.70;8.23;;;;;;;26.17;48.25;100411.28;1753033;80;25403;-65
2021/09/11 08:05:34;;;;;;;13.53;7.92;;;;;;;26.40;47.21;100401.70;1763023;78;27363;-65
2021/09/11 08:08:00;;;;;;;10.10;7.40;;;;;;;26.74;46.26;100403.67;1753334;80;25747;-66
2021/09/11 08:10:27;;;;;;;11.65;8.00;;;;;;;26.98;45.83;100405.90;1759148;80;25670;-65
2021/09/11 08:12:54;;;;;;;12.20;8.05;;;;;;;27.44;45.95;100406.41;1762998;79;25770;-66
2021/09/11 08:17:56;;;;;;;15.30;7.53;;;;;;;28.48;44.80;100405.09;1747081;79;27403;-65
2021/09/11 08:20:23;;;;;;;12.88;7.33;;;;;;;28.71;42.73;100404.83;1786789;79;25818;-66
2021/09/11 08:22:50;;;;;;;9.15;7.42;;;;;;;28.80;42.17;100411.38;1771622;78;25673;-65
2021/09/11 08:25:16;;;;;;;13.90;7.90;;;;;;;28.79;41.30;100407.63;1758184;78;25661;-65
2021/09/11 08:27:43;;;;;;;11.10;7.60;;;;;;;28.94;41.29;100400.52;1773993;79;25443;-65
2021/09/11 08:30:10;;;;;;;12.58;6.85;;;;;;;29.27;40.93;100413.13;1763482;79;27384;-65
2021/09/11 08:32:38;;;;;;;10.58;6.90;;;;;;;29.38;39.97;100404.50;1779739;79;25872;-65
2021/09/11 08:35:08;;;;;;;13.00;7.10;;;;;;;29.45;39.24;100402.92;1718802;82;25467;-65
2021/09/11 08:37:36;;;;;;;8.18;6.78;;;;;;;29.43;38.86;100403.97;1772503;78;25678;-66
2021/09/11 08:40:04;;;;;;;15.93;6.92;;;;;;;29.53;38.52;100404.92;1765947;80;25889;-66
2021/09/11 08:42:32;;;;;;;9.60;6.05;;;;;;;29.58;38.43;100402.39;1761010;79;27319;-66
2021/09/11 08:44:59;;;;;;;11.65;6.80;;;;;;;29.70;37.57;100401.51;1760569;79;25846;-66
2021/09/11 08:47:25;;;;;;;7.95;6.12;;;;;;;29.79;36.86;100408.03;1774581;80;25669;-65
2021/09/11 08:49:52;;;;;;;15.72;7.05;;;;;;;29.58;36.73;100401.61;1764187;79;25859;-65
2021/09/11 08:52:19;;;;;;;8.83;6.20;;;;;;;29.53;37.54;100400.75;1779586;79;25811;-64
2021/09/11 08:54:46;;;;;;;10.32;6.30;;;;;;;29.69;37.09;100406.28;1768811;78;27313;-65
2021/09/11 08:57:25;;;;;;;10.48;6.15;;;;;;;29.71;36.87;100402.47;1750442;79;26690;-66
2021/09/11 09:02:28;;;;;;;9.03;6.37;;;;;;;30.16;36.30;100401.65;1772736;78;25701;-66
2021/09/11 09:04:58;;;;;;;13.22;6.97;;;;;;;30.13;35.85;100396.95;1746723;80;25403;-66
2021/09/11 09:07:40;;;;;;;9.55;5.70;;;;;;;30.12;35.18;100396.80;1716634;83;27915;-64
2021/09/11 09:10:16;;;;;;;9.65;6.55;;;;;;;30.09;35.74;100390.70;1698660;82;25715;-66
2021/09/11 09:12:46;;;;;;;9.33;6.33;;;;;;;30.37;36.06;100391.75;1708799;82;25705;-66
2021/09/11 09:15:17;;;;;;;9.63;6.25;;;;;;;30.75;35.71;100392.40;1710065;82;25777;-65
2021/09/11 09:17:52;;;;;;;6.75;5.67;;;;;;;30.85;35.12;100382.31;1726342;79;26619;-67
2021/09/11 09:20:29;;;;;;;7.92;6.62;;;;;;;30.93;34.87;100388.44;1728682;80;27479;-65
2021/09/11 09:23:06;;;;;;;15.88;6.72;;;;;;;31.04;34.21;100387.52;1740868;80;25829;-66
2021/09/11 09:25:35;;;;;;;9.00;6.25;;;;;;;31.15;34.37;100390.58;1748014;80;25626;-66
2021/09/11 09:28:06;;;;;;;8.25;6.15;;;;;;;31.44;34.45;100387.61;1751064;80;25788;-66
2021/09/11 09:30:48;;;;;;;8.75;6.42;;;;;;;31.51;33.86;100384.59;1765562;79;25517;-66
2021/09/11 09:33:25;;;;;;;8.68;6.53;;;;;;;31.71;34.01;100391.92;1751905;80;27341;-68
2021/09/11 09:35:53;;;;;;;13.75;6.87;;;;;;;31.93;33.71;100391.31;1779214;80;25729;-66
2021/09/11 09:38:20;;;;;;;11.83;5.90;;;;;;;31.89;32.96;100393.47;1780474;78;25822;-67
2021/09/11 09:40:50;;;;;;;8.03;5.92;;;;;;;31.91;31.91;100406.37;1774611;79;25865;-65
2021/09/11 09:43:37;;;;;;;6.60;5.80;;;;;;;31.91;31.91;100406.37;1775139;79;25414;-67
2021/09/11 09:46:13;;;;;;;9.35;6.05;;;;;;;31.43;31.60;100383.23;1744323;79;27111;-66
2021/09/11 09:48:43;;;;;;;8.93;5.92;;;;;;;31.20;32.89;100391.41;1771957;78;25897;-66
2021/09/11 09:51:20;;;;;;;10.25;6.58;;;;;;;30.90;33.06;100384.55;1777420;80;25470;-66
2021/09/11 09:53:52;;;;;;;15.83;6.08;;;;;;;30.90;33.77;100380.95;1758554;80;26040;-66
2021/09/11 09:56:17;;;;;;;10.82;6.50;;;;;;;30.88;33.77;100405.12;1767258;79;25464;-65
2021/09/11 09:58:44;;;;;;;12.53;5.92;;;;;;;30.53;33.34;100378.49;1776761;78;27318;-65
2021/09/11 10:01:11;;;;;;;7.97;5.90;;;;;;;30.48;34.12;100381.06;1751656;80;25870;-64
2021/09/11 10:03:40;;;;;;;10.57;6.50;;;;;;;30.31;33.96;100377.55;1741084;80;25823;-65
2021/09/11 10:06:27;;;;;;;9.38;5.78;;;;;;;30.10;33.45;100388.06;1743043;80;25754;-65
2021/09/11 10:09:06;;;;;;;11.68;6.40;;;;;;;29.81;34.07;100376.93;1755520;80;26138;-63
2021/09/11 10:11:49;;;;;;;9.23;5.62;;;;;;;30.05;34.97;100383.03;1762051;79;27921;-64
2021/09/11 10:14:14;;;;;;;13.28;6.62;;;;;;;30.20;33.28;100372.27;1765550;79;25734;-65
2021/09/11 10:16:44;;;;;;;11.00;6.60;;;;;;;30.11;33.73;100380.50;1758005;80;26534;-65
2021/09/11 10:19:20;;;;;;;13.05;6.17;;;;;;;30.16;33.62;100379.34;1751041;80;26169;-65
2021/09/11 10:21:52;;;;;;;9.25;6.30;;;;;;;29.82;33.69;100368.75;1729743;81;25901;-65
2021/09/11 10:24:25;;;;;;;11.88;6.50;;;;;;;29.75;34.02;100371.70;1724645;81;27394;-65
2021/09/11 10:27:11;;;;;;;7.85;5.85;;;;;;;29.67;33.94;100367.55;1733864;81;25790;-66
2021/09/11 10:29:56;;;;;;;11.60;7.35;;;;;;;29.59;34.56;100364.95;1733056;81;26021;-66
2021/09/11 10:32:36;;;;;;;11.83;6.40;;;;;;;29.83;34.51;100364.75;1735856;81;26084;-65
2021/09/11 10:35:10;;;;;;;9.58;5.90;;;;;;;30.29;34.97;100359.86;1728787;81;25786;-67
2021/09/11 10:37:54;;;;;;;8.55;6.00;;;;;;;30.40;34.34;100356.77;1723393;81;27493;-64
2021/09/11 10:40:36;;;;;;;6.95;5.33;;;;;;;30.32;33.31;100356.77;1674873;83;25923;-66
2021/09/11 10:43:16;;;;;;;8.03;5.97;;;;;;;30.19;33.09;100353.98;1678640;83;25952;-67
2021/09/11 10:46:02;;;;;;;7.47;5.78;;;;;;;29.90;32.19;100349.80;1697169;82;25630;-66
2021/09/11 10:48:48;;;;;;;8.13;5.80;;;;;;;29.60;32.92;100355.35;1703506;83;25652;-66
2021/09/11 10:51:28;;;;;;;7.53;5.03;;;;;;;29.46;32.67;100349.36;1687381;82;27319;-65
2021/09/11 10:54:09;;;;;;;13.75;5.60;;;;;;;29.20;33.09;100346.44;1721415;82;25591;-65
2021/09/11 10:56:44;;;;;;;9.20;5.45;;;;;;;28.99;33.61;100347.73;1705984;82;25974;-66
2021/09/11 10:59:22;;;;;;;7.35;5.65;;;;;;;29.12;34.78;100346.44;1677655;84;25610;-66
2021/09/11 11:02:08;;;;;;;11.20;5.42;;;;;;;29.49;33.82;100351.28;1728694;81;25720;-65
2021/09/11 11:04:54;;;;;;;7.25;5.62;;;;;;;29.43;33.05;100346.86;1753854;79;33301;-64
2021/09/11 11:07:28;;;;;;;12.82;5.65;;;;;;;29.42;33.03;100346.67;1772461;79;25673;-64
2021/09/11 11:10:08;;;;;;;10.00;5.87;;;;;;;29.30;33.04;100342.60;1758176;80;26057;-66
2021/09/11 11:12:45;;;;;;;9.58;5.28;;;;;;;29.60;32.96;100338.63;1753507;80;25716;-64
2021/09/11 11:15:16;;;;;;;9.98;5.40;;;;;;;29.59;32.13;100341.27;1739082;80;25718;-65
2021/09/11 11:17:48;;;;;;;10.23;6.10;;;;;;;29.33;32.26;100337.55;1743585;80;27316;-65
2021/09/11 11:20:21;;;;;;;8.40;5.62;;;;;;;29.38;31.91;100337.64;1752556;79;25917;-67
2021/09/11 11:22:48;;;;;;;6.17;5.17;;;;;;;29.30;31.64;100334.86;1745108;80;25875;-67
2021/09/11 11:25:32;;;;;;;9.68;5.97;;;;;;;29.19;33.04;100335.14;1764623;80;25629;-66